Time;durP1;ratioP1;P1;durP2;ratioP2;P2;SDS_P1;SDS_P2;PMS_P1;PMS_P2;Temp;Humidity;BMP_temperature;BMP_pressure;BME280_temperature;BME280_humidity;BME280_pressure;Samples;Min_cycle;Max_cycle;Signal;HPM_P1;HPM_P2
2022/05/15 00:01:17;;;;;;;;;;;;;;;19.67;39.78;99817.47;4451689;32;33803;-63
2022/05/15 00:03:45;;;;;;;;;;;;;;;19.76;39.57;99826.47;4451262;32;33009;-66
2022/05/15 00:06:13;;;;;;;;;;;;;;;19.60;39.95;99824.59;4450194;32;32693;-65
2022/05/15 00:08:41;;;;;;;;;;;;;;;19.56;40.06;99825.97;4445401;32;34373;-65
2022/05/15 00:11:10;;;;;;;;;;;;;;;19.29;40.30;99825.28;4448824;32;33980;-64
2022/05/15 00:13:37;;;;;;;;;;;;;;;19.57;39.86;99826.81;4449060;32;34065;-64
2022/05/15 00:16:05;;;;;;;;;;;;;;;19.68;39.42;99823.78;4445006;32;32871;-63
2022/05/15 00:18:33;;;;;;;;;;;;;;;19.70;39.98;99824.44;4444181;32;33943;-63
2022/05/15 00:21:01;;;;;;;;;;;;;;;19.45;40.18;99823.56;4441397;32;34532;-65
2022/05/15 00:23:30;;;;;;;;;;;;;;;19.60;39.68;99824.59;4447941;32;33331;-63
2022/05/15 00:26:00;;;;;;;;;;;;;;;19.64;39.64;99828.69;4445592;32;33968;-63
2022/05/15 00:28:35;;;;;;;;;;;;;;;19.65;39.62;99814.09;4442901;32;33435;-66
2022/05/15 00:31:03;;;;;;;;;;;;;;;19.50;40.31;99818.50;4440548;32;33074;-63
2022/05/15 00:33:31;;;;;;;;;;;;;;;19.77;39.95;99818.16;4444979;32;33552;-63
2022/05/15 00:36:00;;;;;;;;;;;;;;;19.81;39.65;99815.06;4447287;32;33964;-67
2022/05/15 00:38:29;;;;;;;;;;;;;;;19.64;40.27;99814.25;4445538;32;35532;-63
2022/05/15 00:40:57;;;;;;;;;;;;;;;19.84;40.02;99812.03;4442201;32;34120;-66
2022/05/15 00:43:34;;;;;;;;;;;;;;;19.98;39.64;99816.75;4444524;32;34037;-64
2022/05/15 00:46:04;;;;;;;;;;;;;;;19.91;39.78;99815.75;4442682;32;34077;-66
2022/05/15 00:48:32;;;;;;;;;;;;;;;19.87;39.46;99811.69;4446813;32;32574;-64
2022/05/15 00:51:01;;;;;;;;;;;;;;;19.94;39.77;99818.13;4447077;32;32877;-64
2022/05/15 00:53:30;;;;;;;;;;;;;;;20.02;39.50;99820.81;4445217;32;33503;-63
2022/05/15 00:55:59;;;;;;;;;;;;;;;19.93;39.68;99813.69;4433993;32;35353;-62
2022/05/15 00:58:31;;;;;;;;;;;;;;;19.95;39.64;99812.50;4447644;32;34007;-65
2022/05/15 01:01:01;;;;;;;;;;;;;;;19.95;39.53;99804.38;4448045;32;33876;-62
2022/05/15 01:03:29;;;;;;;;;;;;;;;19.88;39.77;99802.53;4448287;32;34871;-63
2022/05/15 01:05:58;;;;;;;;;;;;;;;19.76;40.06;99796.59;4446952;32;33853;-64
2022/05/15 01:08:28;;;;;;;;;;;;;;;19.75;39.94;99798.47;4445286;32;35200;-62
2022/05/15 01:10:57;;;;;;;;;;;;;;;19.67;40.16;99803.91;4445062;32;34750;-63
2022/05/15 01:13:37;;;;;;;;;;;;;;;19.70;40.02;99797.28;4447553;32;32694;-63
2022/05/15 01:16:15;;;;;;;;;;;;;;;19.75;39.99;99794.91;4446123;32;33258;-64
2022/05/15 01:18:44;;;;;;;;;;;;;;;19.72;39.90;99795.25;4461307;32;33131;-63
2022/05/15 01:21:18;;;;;;;;;;;;;;;19.69;39.85;99792.88;4437020;32;34796;-63
2022/05/15 01:23:47;;;;;;;;;;;;;;;19.72;39.78;99798.81;4450247;32;33536;-65
2022/05/15 01:26:18;;;;;;;;;;;;;;;19.70;39.83;99794.56;4446052;32;33816;-64
2022/05/15 01:28:46;;;;;;;;;;;;;;;19.68;40.00;99799.34;4448720;32;34326;-63
2022/05/15 01:31:14;;;;;;;;;;;;;;;19.73;39.97;99797.78;4445404;32;33381;-64
2022/05/15 01:33:45;;;;;;;;;;;;;;;19.73;39.84;99795.06;4449864;32;32353;-63
2022/05/15 01:36:16;;;;;;;;;;;;;;;19.72;39.83;99800.69;4448407;32;35134;-66
2022/05/15 01:38:45;;;;;;;;;;;;;;;19.63;40.02;99801.69;4448043;32;33416;-63
2022/05/15 01:41:12;;;;;;;;;;;;;;;19.65;39.67;99800.53;4446291;32;33902;-63
2022/05/15 01:43:47;;;;;;;;;;;;;;;19.57;39.96;99800.50;4447683;32;34204;-65
2022/05/15 01:46:15;;;;;;;;;;;;;;;19.58;39.73;99804.06;4448621;32;33093;-65
2022/05/15 01:48:44;;;;;;;;;;;;;;;19.66;39.79;99809.53;4449355;32;34012;-62
2022/05/15 01:51:12;;;;;;;;;;;;;;;19.70;39.40;99811.72;4448109;32;33137;-66
2022/05/15 01:53:42;;;;;;;;;;;;;;;19.62;39.45;99809.00;4450226;32;33095;-62
2022/05/15 01:56:11;;;;;;;;;;;;;;;19.61;39.71;99812.69;4449157;32;32585;-62
2022/05/15 01:58:39;;;;;;;;;;;;;;;19.62;39.68;99805.44;4449408;32;32888;-63
2022/05/15 02:01:13;;;;;;;;;;;;;;;19.62;39.62;99809.00;4444414;32;34066;-63
2022/05/15 02:03:49;;;;;;;;;;;;;;;19.63;39.61;99801.69;4448468;32;33365;-63
2022/05/15 02:06:18;;;;;;;;;;;;;;;19.60;39.77;99811.00;4449926;32;35127;-63
2022/05/15 02:08:49;;;;;;;;;;;;;;;19.56;39.95;99812.38;4449197;32;35442;-63
2022/05/15 02:11:18;;;;;;;;;;;;;;;19.55;40.12;99813.41;4448208;32;34472;-62
2022/05/15 02:13:47;;;;;;;;;;;;;;;19.52;40.39;99808.31;4449417;32;34357;-63
2022/05/15 02:16:16;;;;;;;;;;;;;;;19.40;40.38;99810.53;4447692;32;32963;-62
2022/05/15 02:18:45;;;;;;;;;;;;;;;19.52;39.95;99814.59;4449586;32;35424;-64
2022/05/15 02:21:14;;;;;;;;;;;;;;;19.59;40.23;99806.62;4441193;32;34082;-62
2022/05/15 02:23:43;;;;;;;;;;;;;;;19.51;40.40;99812.88;4442237;32;32379;-65
2022/05/15 02:26:12;;;;;;;;;;;;;;;19.54;40.51;99817.97;4448322;32;32923;-62
2022/05/15 02:28:42;;;;;;;;;;;;;;;19.47;40.93;99811.53;4449770;32;35320;-63
2022/05/15 02:31:11;;;;;;;;;;;;;;;19.25;41.42;99813.06;4448278;32;34032;-62
2022/05/15 02:33:41;;;;;;;;;;;;;;;19.45;40.73;99810.00;4445205;32;33605;-66
2022/05/15 02:36:10;;;;;;;;;;;;;;;19.33;40.75;99822.25;4448354;32;35278;-66
2022/05/15 02:38:39;;;;;;;;;;;;;;;19.19;41.12;99818.31;4450721;32;34431;-63
2022/05/15 02:41:08;;;;;;;;;;;;;;;19.32;40.70;99813.22;4452172;32;33051;-64
2022/05/15 02:43:39;;;;;;;;;;;;;;;19.37;40.87;99816.28;4450337;32;32776;-65
2022/05/15 02:46:07;;;;;;;;;;;;;;;19.25;40.92;99818.47;4436955;32;35574;-66
2022/05/15 02:51:26;;;;;;;;;;;;;;;19.27;40.84;99827.31;4451725;32;33856;-63
2022/05/15 02:53:55;;;;;;;;;;;;;;;19.37;40.46;99829.84;4452151;32;33414;-64
2022/05/15 02:56:25;;;;;;;;;;;;;;;19.35;40.48;99831.03;4449374;32;34087;-62
2022/05/15 02:58:54;;;;;;;;;;;;;;;19.33;40.52;99828.50;4446430;32;34049;-66
2022/05/15 03:01:23;;;;;;;;;;;;;;;19.28;40.35;99837.12;4450633;32;33256;-63
2022/05/15 03:03:53;;;;;;;;;;;;;;;19.21;40.72;99832.56;4450819;32;33849;-63
2022/05/15 03:06:22;;;;;;;;;;;;;;;19.38;40.33;99828.00;4451039;32;33153;-65
2022/05/15 03:08:52;;;;;;;;;;;;;;;19.31;40.75;99830.53;4447218;32;33261;-63
2022/05/15 03:11:23;;;;;;;;;;;;;;;19.42;40.33;99832.06;4450981;32;34047;-63
2022/05/15 03:13:51;;;;;;;;;;;;;;;19.39;40.54;99829.69;4450937;32;33284;-66
2022/05/15 03:16:20;;;;;;;;;;;;;;;19.42;40.44;99829.34;4450026;32;33006;-65
2022/05/15 03:18:50;;;;;;;;;;;;;;;19.29;40.94;99840.69;4449478;32;34320;-62
2022/05/15 03:21:31;;;;;;;;;;;;;;;19.31;41.07;99834.09;4451224;32;35095;-63
2022/05/15 03:24:11;;;;;;;;;;;;;;;19.35;41.05;99842.75;4444439;32;32641;-61
2022/05/15 03:26:44;;;;;;;;;;;;;;;19.35;40.86;99848.16;4460950;32;32767;-62
2022/05/15 03:29:15;;;;;;;;;;;;;;;19.36;41.00;99843.59;4448040;32;32981;-65
2022/05/15 03:31:43;;;;;;;;;;;;;;;19.24;41.04;99841.22;4450104;32;32984;-64
2022/05/15 03:34:16;;;;;;;;;;;;;;;19.34;40.93;99848.34;4450145;32;32251;-66
2022/05/15 03:36:47;;;;;;;;;;;;;;;19.17;41.33;99847.50;4452448;32;33073;-62
2022/05/15 03:39:15;;;;;;;;;;;;;;;19.05;41.46;99845.09;4449093;32;34451;-62
2022/05/15 03:41:44;;;;;;;;;;;;;;;19.05;41.46;99847.81;4450750;32;34295;-61
2022/05/15 03:44:13;;;;;;;;;;;;;;;19.10;41.42;99847.31;4447787;32;33703;-63
2022/05/15 03:46:41;;;;;;;;;;;;;;;19.12;41.28;99847.13;4450491;32;33137;-65
2022/05/15 03:49:11;;;;;;;;;;;;;;;19.07;41.32;99851.22;4450210;32;34374;-64
2022/05/15 03:51:40;;;;;;;;;;;;;;;19.00;41.43;99855.56;4450334;32;33029;-64
2022/05/15 03:54:09;;;;;;;;;;;;;;;19.00;41.33;99846.59;4446915;32;32549;-62
2022/05/15 03:56:50;;;;;;;;;;;;;;;19.01;41.35;99851.03;4450450;32;34194;-64
2022/05/15 03:59:27;;;;;;;;;;;;;;;18.96;41.63;99861.50;4447259;32;35285;-62
2022/05/15 04:01:55;;;;;;;;;;;;;;;18.89;41.64;99855.06;4449850;32;34146;-65
2022/05/15 04:04:25;;;;;;;;;;;;;;;18.82;41.73;99865.72;4448409;32;33210;-65
2022/05/15 04:06:54;;;;;;;;;;;;;;;18.73;42.02;99858.56;4450863;32;33856;-65
2022/05/15 04:09:22;;;;;;;;;;;;;;;18.55;42.80;99864.06;4446916;32;33039;-66
2022/05/15 04:11:51;;;;;;;;;;;;;;;18.68;43.04;99869.84;4452281;32;34056;-65
2022/05/15 04:14:20;;;;;;;;;;;;;;;18.92;42.58;99877.28;4447442;32;33330;-66
2022/05/15 04:16:48;;;;;;;;;;;;;;;18.97;42.83;99864.06;4450272;32;34695;-65
2022/05/15 04:19:17;;;;;;;;;;;;;;;19.00;42.93;99866.44;4446917;32;33535;-64
2022/05/15 04:21:48;;;;;;;;;;;;;;;19.04;42.35;99875.09;4452268;32;35064;-65
2022/05/15 04:24:27;;;;;;;;;;;;;;;19.09;42.22;99873.56;4448087;32;33315;-63
2022/05/15 04:26:55;;;;;;;;;;;;;;;19.19;42.21;99876.12;4448334;32;32293;-63
2022/05/15 04:29:24;;;;;;;;;;;;;;;19.30;41.88;99880.41;4445691;32;34292;-66
2022/05/15 04:31:55;;;;;;;;;;;;;;;19.47;41.71;99883.97;4449016;32;36083;-64
2022/05/15 04:34:24;;;;;;;;;;;;;;;19.54;41.56;99879.56;4452104;32;33439;-63
2022/05/15 04:36:51;;;;;;;;;;;;;;;19.69;41.72;99880.63;4450215;32;35304;-64
2022/05/15 04:39:20;;;;;;;;;;;;;;;19.85;41.29;99884.34;4449260;32;32940;-66
2022/05/15 04:41:48;;;;;;;;;;;;;;;19.89;40.67;99883.81;4448490;32;35515;-65
2022/05/15 04:44:16;;;;;;;;;;;;;;;19.89;40.60;99886.53;4451497;32;32204;-65
2022/05/15 04:46:44;;;;;;;;;;;;;;;20.03;40.50;99895.84;4450688;32;32925;-65
2022/05/15 04:49:13;;;;;;;;;;;;;;;20.12;40.40;99891.25;4450073;32;32654;-65
2022/05/15 04:51:41;;;;;;;;;;;;;;;20.19;40.56;99893.13;4448640;32;35141;-64
2022/05/15 04:54:10;;;;;;;;;;;;;;;20.30;40.34;99891.91;4451321;32;34512;-63
2022/05/15 04:56:39;;;;;;;;;;;;;;;20.41;40.46;99888.81;4451121;32;34124;-65
2022/05/15 04:59:07;;;;;;;;;;;;;;;20.48;40.60;99892.53;4447494;32;35520;-62
2022/05/15 05:01:35;;;;;;;;;;;;;;;20.63;40.40;99892.66;4447946;32;32846;-64
2022/05/15 05:04:04;;;;;;;;;;;;;;;20.77;40.34;99892.94;4447777;32;32424;-65
2022/05/15 05:06:33;;;;;;;;;;;;;;;20.70;40.56;99890.94;4450768;32;34094;-64
2022/05/15 05:09:07;;;;;;;;;;;;;;;20.83;40.00;99897.69;4450609;32;34142;-64
2022/05/15 05:11:39;;;;;;;;;;;;;;;20.99;40.84;99896.75;4449587;32;35105;-65
2022/05/15 05:14:08;;;;;;;;;;;;;;;21.09;41.06;99902.81;4449412;32;33238;-65
2022/05/15 05:16:36;;;;;;;;;;;;;;;21.35;39.62;99905.28;4449204;32;35211;-63
2022/05/15 05:19:04;;;;;;;;;;;;;;;21.46;39.32;99899.38;4450043;32;34333;-66
2022/05/15 05:21:33;;;;;;;;;;;;;;;21.54;39.05;99902.06;4449307;32;34725;-63
2022/05/15 05:24:02;;;;;;;;;;;;;;;21.62;38.36;99909.31;4449871;32;33348;-63
2022/05/15 05:26:30;;;;;;;;;;;;;;;21.62;38.35;99907.44;4450040;32;34227;-64
2022/05/15 05:28:59;;;;;;;;;;;;;;;21.72;37.95;99907.19;4450056;32;34240;-66
2022/05/15 05:31:27;;;;;;;;;;;;;;;21.81;37.20;99900.63;4445788;32;35082;-65
2022/05/15 05:33:56;;;;;;;;;;;;;;;21.79;37.67;99905.41;4450764;32;33456;-66
2022/05/15 05:36:24;;;;;;;;;;;;;;;21.88;37.98;99908.91;4448222;32;33061;-65
2022/05/15 05:38:54;;;;;;;;;;;;;;;22.00;38.43;99910.19;4450511;32;34991;-67
2022/05/15 05:41:22;;;;;;;;;;;;;;;22.07;38.52;99911.13;4447419;32;34182;-64
2022/05/15 05:43:51;;;;;;;;;;;;;;;22.14;38.08;99908.50;4449924;32;32391;-67
2022/05/15 05:46:21;;;;;;;;;;;;;;;22.13;38.29;99914.16;4446833;32;34353;-64
2022/05/15 05:48:50;;;;;;;;;;;;;;;22.14;38.76;99913.97;4450695;32;34394;-67
2022/05/15 05:51:18;;;;;;;;;;;;;;;22.30;38.99;99908.38;4449401;32;34963;-65
2022/05/15 05:53:47;;;;;;;;;;;;;;;22.36;38.57;99905.94;4451093;32;32355;-65
2022/05/15 05:56:21;;;;;;;;;;;;;;;22.38;38.21;99912.06;4446967;32;32806;-66
2022/05/15 05:58:54;;;;;;;;;;;;;;;22.38;38.46;99914.78;4449239;32;35415;-64
2022/05/15 06:01:24;;;;;;;;;;;;;;;22.46;38.63;99917.41;4447034;32;34331;-64
2022/05/15 06:06:43;;;;;;;;;;;;;;;22.74;39.46;99915.72;4444924;32;33700;-65
2022/05/15 06:09:12;;;;;;;;;;;;;;;22.91;38.41;99915.50;4450568;32;34027;-64
2022/05/15 06:11:41;;;;;;;;;;;;;;;22.90;38.41;99924.75;4445301;32;33969;-66
2022/05/15 06:14:10;;;;;;;;;;;;;;;23.04;38.58;99925.78;4444890;32;33330;-64
2022/05/15 06:16:39;;;;;;;;;;;;;;;23.09;37.60;99915.13;4445026;32;33227;-64
2022/05/15 06:19:08;;;;;;;;;;;;;;;23.13;37.57;99921.91;4447632;32;32984;-65
2022/05/15 06:21:37;;;;;;;;;;;;;;;23.27;37.12;99920.16;4446324;32;34181;-64
2022/05/15 06:24:08;;;;;;;;;;;;;;;23.44;38.11;99925.19;4448439;32;33748;-64
2022/05/15 06:26:37;;;;;;;;;;;;;;;23.56;36.09;99925.50;4448306;32;34295;-65
2022/05/15 06:29:06;;;;;;;;;;;;;;;23.75;37.56;99921.31;4444736;32;34469;-66
2022/05/15 06:31:37;;;;;;;;;;;;;;;23.86;36.58;99920.81;4445521;32;32918;-66
2022/05/15 06:34:05;;;;;;;;;;;;;;;23.35;38.02;99922.78;4448520;32;33122;-65
2022/05/15 06:36:34;;;;;;;;;;;;;;;23.64;37.16;99924.56;4448784;32;33267;-63
2022/05/15 06:39:03;;;;;;;;;;;;;;;23.92;33.22;99917.28;4449875;32;34469;-65
2022/05/15 06:41:32;;;;;;;;;;;;;;;24.14;32.72;99919.97;4421127;32;854449;-67
2022/05/15 06:44:02;;;;;;;;;;;;;;;24.06;34.58;99918.22;4446240;32;33574;-65
2022/05/15 06:46:34;;;;;;;;;;;;;;;24.35;34.07;99919.91;4451275;32;34271;-65
2022/05/15 06:49:06;;;;;;;;;;;;;;;24.53;31.95;99911.25;4450231;32;34254;-65
2022/05/15 06:51:36;;;;;;;;;;;;;;;24.63;29.52;99916.34;4447897;32;33025;-64
2022/05/15 06:54:04;;;;;;;;;;;;;;;24.66;30.38;99921.41;4447017;32;32234;-64
2022/05/15 06:59:24;;;;;;;;;;;;;;;24.45;28.92;99916.84;4452436;32;33314;-64
2022/05/15 07:01:55;;;;;;;;;;;;;;;24.57;27.71;99915.25;4450135;32;34005;-64
2022/05/15 07:04:28;;;;;;;;;;;;;;;24.31;30.17;99915.06;4451475;32;31912;-64
2022/05/15 07:07:01;;;;;;;;;;;;;;;24.24;30.76;99917.75;4451891;32;32953;-65
2022/05/15 07:09:30;;;;;;;;;;;;;;;24.65;30.34;99919.72;4447686;32;33133;-66
2022/05/15 07:12:06;;;;;;;;;;;;;;;24.57;30.83;99919.88;4451926;32;34859;-65
2022/05/15 07:14:44;;;;;;;;;;;;;;;24.56;30.75;99921.78;4446671;32;33746;-65
2022/05/15 07:17:13;;;;;;;;;;;;;;;24.36;32.51;99918.88;4449080;32;34407;-65
2022/05/15 07:19:44;;;;;;;;;;;;;;;24.37;32.06;99927.94;4452592;32;33318;-65
2022/05/15 07:22:16;;;;;;;;;;;;;;;24.80;29.86;99914.12;4452827;32;32929;-65
2022/05/15 07:24:50;;;;;;;;;;;;;;;24.63;31.05;99914.44;4452479;32;31607;-66
2022/05/15 07:27:21;;;;;;;;;;;;;;;24.54;30.90;99920.28;4452351;32;33099;-66
2022/05/15 07:29:54;;;;;;;;;;;;;;;24.67;30.27;99914.88;4454840;32;33998;-64
2022/05/15 07:32:27;;;;;;;;;;;;;;;24.71;30.82;99915.31;4445458;32;35139;-66
2022/05/15 07:34:58;;;;;;;;;;;;;;;24.85;30.56;99915.19;4451894;32;33508;-64
2022/05/15 07:37:28;;;;;;;;;;;;;;;25.31;30.37;99908.22;4453224;32;34051;-63
2022/05/15 07:39:59;;;;;;;;;;;;;;;25.29;30.79;99913.91;4452394;32;34330;-64
2022/05/15 07:42:38;;;;;;;;;;;;;;;25.25;32.49;99912.63;4450192;32;35250;-66
2022/05/15 07:45:12;;;;;;;;;;;;;;;25.35;31.36;99911.41;4452305;32;32102;-66
2022/05/15 07:47:49;;;;;;;;;;;;;;;25.10;29.47;99912.78;4451164;32;34069;-66
2022/05/15 07:50:22;;;;;;;;;;;;;;;25.45;28.25;99912.69;4452157;32;34393;-65
2022/05/15 07:52:57;;;;;;;;;;;;;;;25.46;29.83;99916.28;4450563;32;34196;-65
2022/05/15 07:55:31;;;;;;;;;;;;;;;25.74;29.38;99914.19;4451164;32;33340;-64
2022/05/15 07:58:05;;;;;;;;;;;;;;;25.04;30.15;99919.06;4453489;32;35179;-65
2022/05/15 08:00:38;;;;;;;;;;;;;;;25.32;29.09;99918.97;4453730;32;34264;-66
2022/05/15 08:03:13;;;;;;;;;;;;;;;25.23;29.89;99914.75;4450886;32;35133;-65
2022/05/15 08:08:36;;;;;;;;;;;;;;;25.78;27.23;99910.00;4451724;32;32905;-66
2022/05/15 08:11:09;;;;;;;;;;;;;;;25.25;28.76;99909.91;4452299;32;34416;-66
2022/05/15 08:13:42;;;;;;;;;;;;;;;25.56;28.23;99909.34;4443822;32;33033;-64
2022/05/15 08:16:16;;;;;;;;;;;;;;;25.24;28.22;99904.63;4454142;32;33566;-65
2022/05/15 08:24:35;;;;;;;;;;;;;;;25.44;28.42;99911.00;4451461;32;33069;-65
2022/05/15 08:27:09;;;;;;;;;;;;;;;25.57;28.20;99907.44;4454351;32;33053;-65
2022/05/15 08:29:39;;;;;;;;;;;;;;;25.58;27.10;99911.88;4451860;32;34155;-65
2022/05/15 08:32:07;;;;;;;;;;;;;;;25.56;27.91;99912.09;4446765;32;33156;-64
2022/05/15 08:34:36;;;;;;;;;;;;;;;25.95;26.85;99910.47;4447971;32;34379;-65
2022/05/15 08:37:05;;;;;;;;;;;;;;;25.85;26.79;99912.78;4451187;32;32265;-64
2022/05/15 08:39:33;;;;;;;;;;;;;;;25.85;27.86;99912.78;4450102;32;34818;-65
2022/05/15 08:42:13;;;;;;;;;;;;;;;25.63;26.73;99917.56;4447965;32;34264;-66
2022/05/15 08:44:45;;;;;;;;;;;;;;;25.73;27.47;99918.00;4437379;32;34314;-64
2022/05/15 08:47:13;;;;;;;;;;;;;;;25.66;26.75;99922.63;4444510;32;33328;-65
2022/05/15 08:49:41;;;;;;;;;;;;;;;25.72;26.43;99919.06;4446930;32;34301;-66
2022/05/15 08:52:15;;;;;;;;;;;;;;;25.80;27.12;99918.00;4449053;32;34068;-65
2022/05/15 08:54:43;;;;;;;;;;;;;;;26.33;26.44;99920.78;4449159;32;34443;-66
2022/05/15 08:57:13;;;;;;;;;;;;;;;26.40;25.86;99913.38;4451481;32;32515;-67
2022/05/15 08:59:54;;;;;;;;;;;;;;;26.14;25.79;99919.75;4447196;32;33143;-66
2022/05/15 09:02:23;;;;;;;;;;;;;;;26.56;25.53;99920.34;4447988;32;33042;-67
2022/05/15 09:04:51;;;;;;;;;;;;;;;26.69;25.50;99911.22;4449886;32;34461;-66
2022/05/15 09:07:24;;;;;;;;;;;;;;;26.30;25.98;99912.13;4450816;32;33498;-66
2022/05/15 09:09:55;;;;;;;;;;;;;;;26.46;26.30;99915.28;4448499;32;35311;-65
2022/05/15 09:12:24;;;;;;;;;;;;;;;26.22;25.50;99914.03;4450258;32;35215;-66
2022/05/15 09:15:04;;;;;;;;;;;;;;;26.27;25.59;99907.91;4447887;32;33227;-65
2022/05/15 09:17:52;;;;;;;;;;;;;;;26.77;24.51;99910.13;4450526;32;33419;-66
2022/05/15 09:20:24;;;;;;;;;;;;;;;26.90;25.13;99910.09;4449388;32;35375;-64
2022/05/15 09:23:00;;;;;;;;;;;;;;;26.67;25.86;99910.59;4449832;32;34485;-66
2022/05/15 09:25:32;;;;;;;;;;;;;;;26.65;25.06;99901.75;4445094;32;32588;-67
2022/05/15 09:28:08;;;;;;;;;;;;;;;26.64;25.28;99900.88;4445126;32;31768;-66
2022/05/15 09:30:42;;;;;;;;;;;;;;;27.32;25.65;99913.31;4444148;32;35242;-66
2022/05/15 09:33:24;;;;;;;;;;;;;;;27.56;25.01;99898.78;4451544;32;34389;-66
2022/05/15 09:35:52;;;;;;;;;;;;;;;27.39;26.32;99911.38;4448945;32;34321;-66
2022/05/15 09:38:28;;;;;;;;;;;;;;;27.22;24.96;99905.53;4448786;32;32574;-66
2022/05/15 09:44:27;;;;;;;;;;;;;;;27.65;24.98;99904.88;4444384;32;33266;-67
2022/05/15 09:47:00;;;;;;;;;;;;;;;27.56;24.75;99898.78;4434981;32;33982;-67
2022/05/15 09:49:34;;;;;;;;;;;;;;;28.00;24.75;99902.50;4443785;32;33257;-65
2022/05/15 09:52:10;;;;;;;;;;;;;;;27.62;24.92;99900.66;4448926;32;35266;-66
2022/05/15 09:54:49;;;;;;;;;;;;;;;27.73;24.15;99899.09;4443065;32;34004;-66
2022/05/15 09:57:25;;;;;;;;;;;;;;;28.16;23.50;99897.50;4451946;32;34417;-66
2022/05/15 09:59:58;;;;;;;;;;;;;;;28.16;24.47;99900.25;4451905;32;32838;-67
2022/05/15 10:02:40;;;;;;;;;;;;;;;28.12;24.23;99896.25;4450861;32;33213;-67
2022/05/15 10:05:14;;;;;;;;;;;;;;;27.78;24.33;99896.56;4449308;32;33930;-65
2022/05/15 10:07:52;;;;;;;;;;;;;;;28.53;24.09;99902.00;4451542;32;33527;-65
2022/05/15 10:10:29;;;;;;;;;;;;;;;28.29;23.19;99897.38;4453032;32;34195;-66
2022/05/15 10:13:10;;;;;;;;;;;;;;;28.82;22.53;99888.56;4452546;32;33939;-67
2022/05/15 10:15:42;;;;;;;;;;;;;;;29.37;22.52;99882.13;4446635;32;35563;-66
2022/05/15 10:18:30;;;;;;;;;;;;;;;28.68;23.82;99890.62;4450992;32;35287;-67
2022/05/15 10:21:04;;;;;;;;;;;;;;;29.27;23.37;99885.44;4450036;32;33173;-68
2022/05/15 10:23:47;;;;;;;;;;;;;;;29.42;22.29;99887.78;4450363;32;33985;-65
2022/05/15 10:26:26;;;;;;;;;;;;;;;29.70;21.64;99885.28;4447936;32;34225;-66
2022/05/15 10:29:02;;;;;;;;;;;;;;;29.49;22.58;99883.84;4450374;32;32868;-65
2022/05/15 10:31:43;;;;;;;;;;;;;;;29.73;22.01;99886.72;4446145;32;32772;-66
2022/05/15 10:34:23;;;;;;;;;;;;;;;30.42;20.01;99883.41;4449117;32;33697;-68
2022/05/15 10:37:18;;;;;;;;;;;;;;;30.24;21.09;99871.44;4445250;32;33496;-66
2022/05/15 10:39:52;;;;;;;;;;;;;;;29.69;22.43;99877.22;4441012;32;33023;-66
2022/05/15 10:42:23;;;;;;;;;;;;;;;28.74;23.22;99872.34;4444962;32;33442;-68
2022/05/15 10:45:12;;;;;;;;;;;;;;;29.09;22.20;99882.75;4445315;32;32916;-68
2022/05/15 10:47:40;;;;;;;;;;;;;;;29.62;20.84;99873.72;4440393;32;34421;-65
2022/05/15 10:50:18;;;;;;;;;;;;;;;30.02;20.99;99860.12;4445334;32;33575;-65
2022/05/15 10:52:48;;;;;;;;;;;;;;;30.10;21.37;99865.25;4442952;32;33371;-66
2022/05/15 10:58:30;;;;;;;;;;;;;;;29.66;21.89;99861.13;4449072;32;32745;-68
2022/05/15 11:01:08;;;;;;;;;;;;;;;28.90;22.67;99866.22;4455618;32;33064;-67
2022/05/15 11:03:43;;;;;;;;;;;;;;;30.14;21.17;99866.50;4445060;32;33185;-67
2022/05/15 11:06:40;;;;;;;;;;;;;;;29.30;21.24;99853.81;4450772;32;33880;-67
2022/05/15 11:09:28;;;;;;;;;;;;;;;30.17;20.61;99854.94;4438264;32;34145;-67
2022/05/15 11:11:59;;;;;;;;;;;;;;;30.10;20.87;99847.87;4435646;32;35634;-67
2022/05/15 11:14:37;;;;;;;;;;;;;;;29.52;21.84;99854.97;4446870;32;32909;-67
2022/05/15 11:17:07;;;;;;;;;;;;;;;29.46;21.95;99853.16;4451744;32;34206;-68
2022/05/15 11:19:40;;;;;;;;;;;;;;;29.79;21.08;99849.03;4444732;32;33721;-67
2022/05/15 11:22:07;;;;;;;;;;;;;;;29.71;20.18;99844.72;4444836;32;33988;-66
2022/05/15 11:24:43;;;;;;;;;;;;;;;29.90;20.25;99843.53;4449346;32;33406;-66
2022/05/15 11:27:16;;;;;;;;;;;;;;;30.60;20.22;99841.84;4425692;32;32940;-66
2022/05/15 11:29:48;;;;;;;;;;;;;;;30.12;20.86;99830.00;4446971;32;32962;-67
2022/05/15 11:32:27;;;;;;;;;;;;;;;29.84;21.78;99829.88;4442363;32;33893;-66
2022/05/15 11:35:06;;;;;;;;;;;;;;;29.48;22.66;99835.31;4450227;32;33384;-67
2022/05/15 11:37:37;;;;;;;;;;;;;;;29.78;22.11;99834.41;4447996;32;34262;-68
2022/05/15 11:40:10;;;;;;;;;;;;;;;29.56;21.42;99828.59;4447297;32;34114;-67
2022/05/15 11:42:38;;;;;;;;;;;;;;;29.55;21.52;99829.69;4446326;32;33819;-68
2022/05/15 11:45:25;;;;;;;;;;;;;;;29.90;21.97;99826.16;4443854;32;32394;-67
2022/05/15 11:47:58;;;;;;;;;;;;;;;29.63;22.12;99818.34;4442783;32;34319;-69
2022/05/15 11:50:35;;;;;;;;;;;;;;;28.73;22.47;99816.44;4450810;32;33936;-67
2022/05/15 11:53:06;;;;;;;;;;;;;;;28.60;22.73;99813.00;4450537;32;33211;-66
2022/05/15 11:55:38;;;;;;;;;;;;;;;29.60;22.13;99826.19;4452211;32;32201;-69
2022/05/15 11:58:16;;;;;;;;;;;;;;;29.47;21.69;99816.22;4447954;32;34117;-67
2022/05/15 12:00:56;;;;;;;;;;;;;;;29.24;22.14;99814.25;4441718;32;33829;-67
2022/05/15 12:03:45;;;;;;;;;;;;;;;28.34;23.03;99810.28;4442962;32;33008;-67
2022/05/15 12:06:14;;;;;;;;;;;;;;;29.60;22.14;99815.16;4447130;32;33337;-67
2022/05/15 12:08:42;;;;;;;;;;;;;;;29.30;22.54;99815.22;4448816;32;32426;-68
2022/05/15 12:11:27;;;;;;;;;;;;;;;29.63;22.66;99810.06;4448109;32;35184;-67
2022/05/15 12:13:55;;;;;;;;;;;;;;;29.05;23.79;99801.59;4440338;32;34301;-66
2022/05/15 12:16:24;;;;;;;;;;;;;;;29.31;23.91;99806.75;4451138;32;32361;-64
2022/05/15 12:19:03;;;;;;;;;;;;;;;29.18;24.49;99804.16;4448509;32;34419;-69
2022/05/15 12:21:36;;;;;;;;;;;;;;;28.86;23.84;99798.91;4447937;32;33240;-69
2022/05/15 12:27:10;;;;;;;;;;;;;;;29.24;23.08;99795.78;4450676;32;34253;-69
2022/05/15 12:29:47;;;;;;;;;;;;;;;28.94;22.45;99792.19;4451242;32;32858;-66
2022/05/15 12:32:17;;;;;;;;;;;;;;;29.12;22.67;99792.19;4451748;32;34149;-67
2022/05/15 12:34:48;;;;;;;;;;;;;;;28.67;23.95;99787.06;4449468;32;33067;-69
2022/05/15 12:37:26;;;;;;;;;;;;;;;28.82;23.17;99791.31;4444156;32;33241;-69
2022/05/15 12:39:56;;;;;;;;;;;;;;;28.72;24.92;99786.34;4446317;32;33634;-67
2022/05/15 12:42:33;;;;;;;;;;;;;;;28.92;22.86;99781.41;4450321;32;34122;-68
2022/05/15 12:45:03;;;;;;;;;;;;;;;29.27;22.62;99777.12;4444822;32;34123;-67
2022/05/15 12:47:34;;;;;;;;;;;;;;;28.84;23.57;99789.19;4447542;32;34044;-66
2022/05/15 12:50:04;;;;;;;;;;;;;;;28.48;24.33;99780.75;4443917;32;34231;-65
2022/05/15 12:52:33;;;;;;;;;;;;;;;28.59;24.05;99778.28;4436759;32;34066;-68
2022/05/15 12:55:04;;;;;;;;;;;;;;;28.75;23.67;99763.88;4446241;32;33176;-66
2022/05/15 12:57:42;;;;;;;;;;;;;;;28.83;22.87;99771.81;4451034;32;32212;-66
2022/05/15 13:00:11;;;;;;;;;;;;;;;28.82;23.30;99772.87;4451419;32;33079;-65
2022/05/15 13:02:39;;;;;;;;;;;;;;;29.07;23.05;99771.91;4447021;32;33354;-66
2022/05/15 13:05:08;;;;;;;;;;;;;;;28.99;22.58;99764.81;4447912;32;34956;-68
2022/05/15 13:07:37;;;;;;;;;;;;;;;28.53;23.29;99758.84;4457851;32;32510;-66
2022/05/15 13:10:09;;;;;;;;;;;;;;;29.07;23.06;99758.13;4447594;32;35323;-67
2022/05/15 13:12:47;;;;;;;;;;;;;;;29.16;22.45;99760.31;4445810;32;34607;-69
2022/05/15 13:15:21;;;;;;;;;;;;;;;29.16;22.17;99756.72;4446394;32;34155;-67
2022/05/15 13:17:50;;;;;;;;;;;;;;;29.24;22.35;99748.94;4448285;32;32754;-68
2022/05/15 13:20:20;;;;;;;;;;;;;;;28.32;24.16;99748.31;4448747;32;33282;-66
2022/05/15 13:22:49;;;;;;;;;;;;;;;28.82;23.68;99745.31;4450250;32;34492;-66
2022/05/15 13:25:28;;;;;;;;;;;;;;;29.27;22.05;99733.84;4448831;32;32816;-66
2022/05/15 13:27:56;;;;;;;;;;;;;;;28.65;22.50;99738.81;4438485;32;33469;-66
2022/05/15 13:30:25;;;;;;;;;;;;;;;28.75;21.89;99737.16;4447348;32;34476;-68
2022/05/15 13:32:55;;;;;;;;;;;;;;;29.61;21.68;99736.94;4447280;32;34543;-67
2022/05/15 13:35:23;;;;;;;;;;;;;;;29.31;21.44;99735.06;4446237;32;33757;-66
2022/05/15 13:37:52;;;;;;;;;;;;;;;29.27;21.08;99733.03;4446659;32;31772;-66